createdAt,value
2018-08-28T00:02:24.497Z,4.47
2018-08-28T00:04:53.279Z,4.70
2018-08-28T00:07:22.414Z,4.20
2018-08-28T00:09:52.151Z,4.28
2018-08-28T00:12:20.740Z,4.40
2018-08-28T00:14:49.702Z,4.37
2018-08-28T00:17:18.506Z,4.45
2018-08-28T00:19:47.650Z,4.47
2018-08-28T00:22:17.913Z,4.37
2018-08-28T00:24:46.619Z,4.70
2018-08-28T00:27:15.560Z,4.58
2018-08-28T00:29:44.213Z,5.05
2018-08-28T00:32:13.773Z,4.65
2018-08-28T00:34:42.489Z,4.85
2018-08-28T00:37:12.072Z,4.93
2018-08-28T00:39:41.940Z,5.45
2018-08-28T00:42:11.001Z,5.05
2018-08-28T00:44:39.604Z,5.20
2018-08-28T00:47:08.248Z,5.30
2018-08-28T00:49:37.694Z,4.43
2018-08-28T00:52:07.004Z,5.33
2018-08-28T00:54:35.916Z,4.83
2018-08-28T00:57:04.687Z,5.60
2018-08-28T00:59:33.613Z,5.15
2018-08-28T01:02:02.724Z,5.27
2018-08-28T01:04:31.443Z,5.20
2018-08-28T01:07:03.290Z,6.03
2018-08-28T01:09:32.032Z,5.73
2018-08-28T01:12:01.749Z,5.27
2018-08-28T01:14:31.077Z,5.50
2018-08-28T01:16:59.943Z,5.33
2018-08-28T01:19:28.975Z,5.28
2018-08-28T01:21:57.783Z,5.73
2018-08-28T01:24:27.532Z,5.47
2018-08-28T01:26:56.194Z,5.67
2018-08-28T01:29:25.541Z,7.23
2018-08-28T01:31:54.747Z,6.27
2018-08-28T01:34:23.872Z,5.83
2018-08-28T01:36:52.401Z,5.53
2018-08-28T01:39:21.017Z,5.60
2018-08-28T01:41:50.217Z,5.20
2018-08-28T01:44:19.241Z,5.47
2018-08-28T01:46:47.873Z,5.53
2018-08-28T01:49:16.433Z,5.63
2018-08-28T01:51:46.117Z,5.90
2018-08-28T01:54:15.765Z,5.48
2018-08-28T01:56:44.972Z,5.70
2018-08-28T01:59:14.493Z,5.40
2018-08-28T02:01:43.017Z,5.30
2018-08-28T02:04:12.134Z,5.30
2018-08-28T02:06:40.683Z,5.08
2018-08-28T02:09:09.416Z,5.03
2018-08-28T02:11:38.334Z,4.58
2018-08-28T02:14:06.921Z,4.90
2018-08-28T02:16:35.855Z,5.03
2018-08-28T02:19:05.389Z,4.47
2018-08-28T02:21:34.491Z,4.20
2018-08-28T02:24:05.294Z,4.07
2018-08-28T02:26:33.817Z,4.13
2018-08-28T02:29:04.052Z,3.87
2018-08-28T02:31:32.943Z,3.50
2018-08-28T02:34:02.013Z,4.12
2018-08-28T02:36:30.990Z,4.20
2018-08-28T02:38:59.674Z,4.10
2018-08-28T02:41:28.207Z,4.40
2018-08-28T02:43:56.639Z,3.80
2018-08-28T02:46:25.253Z,4.08
2018-08-28T02:48:54.723Z,3.70
2018-08-28T02:51:24.144Z,3.93
2018-08-28T02:53:55.564Z,3.50
2018-08-28T02:56:24.197Z,4.10
2018-08-28T02:58:53.157Z,4.10
2018-08-28T03:01:22.425Z,3.90
2018-08-28T03:03:52.195Z,3.70
2018-08-28T03:06:20.834Z,3.30
2018-08-28T03:08:49.363Z,3.70
2018-08-28T03:11:18.677Z,3.67
2018-08-28T03:13:47.570Z,3.65
2018-08-28T03:16:16.237Z,3.50
2018-08-28T03:18:45.835Z,3.10
2018-08-28T03:21:14.805Z,3.62
2018-08-28T03:23:43.408Z,3.23
2018-08-28T03:26:11.973Z,3.17
2018-08-28T03:28:41.069Z,3.40
2018-08-28T03:31:10.419Z,3.27
2018-08-28T03:33:39.079Z,2.90
2018-08-28T03:36:07.585Z,3.30
2018-08-28T03:38:36.179Z,3.30
2018-08-28T03:41:04.843Z,3.05
2018-08-28T03:43:33.558Z,3.60
2018-08-28T03:46:03.699Z,3.50
2018-08-28T03:48:34.263Z,3.27
2018-08-28T03:51:04.960Z,3.27
2018-08-28T03:53:33.952Z,2.90
2018-08-28T03:56:02.757Z,3.72
2018-08-28T03:58:31.272Z,3.17
2018-08-28T04:00:59.923Z,3.10
2018-08-28T04:03:28.507Z,3.40
2018-08-28T04:05:58.639Z,3.47
2018-08-28T04:08:27.352Z,3.00
2018-08-28T04:10:57.269Z,3.00
2018-08-28T04:13:27.728Z,3.08
2018-08-28T04:15:57.268Z,3.13
2018-08-28T04:18:25.741Z,3.50
2018-08-28T04:20:55.308Z,2.77
2018-08-28T04:23:23.832Z,3.20
2018-08-28T04:25:52.701Z,3.20
2018-08-28T04:28:22.714Z,3.27
2018-08-28T04:30:51.316Z,3.40
2018-08-28T04:33:20.344Z,3.07
2018-08-28T04:35:49.187Z,3.20
2018-08-28T04:38:17.782Z,3.40
2018-08-28T04:40:46.273Z,3.10
2018-08-28T04:43:16.595Z,3.10
2018-08-28T04:45:45.826Z,3.40
2018-08-28T04:48:14.617Z,3.60
2018-08-28T04:50:45.437Z,3.03
2018-08-28T04:53:14.567Z,2.93
2018-08-28T04:55:43.197Z,3.10
2018-08-28T04:58:13.004Z,3.00
2018-08-28T05:00:43.913Z,3.30
2018-08-28T05:03:13.509Z,2.83
2018-08-28T05:05:43.540Z,3.30
2018-08-28T05:08:13.011Z,3.10
2018-08-28T05:10:42.128Z,3.17
2018-08-28T05:13:10.761Z,3.15
2018-08-28T05:15:39.892Z,3.47
2018-08-28T05:18:09.264Z,3.57
2018-08-28T05:20:38.962Z,3.60
2018-08-28T05:23:08.612Z,3.33
2018-08-28T05:25:38.844Z,3.33
2018-08-28T05:28:08.818Z,2.95
2018-08-28T05:30:38.292Z,3.20
2018-08-28T05:33:11.206Z,4.08
2018-08-28T05:35:41.041Z,3.45
2018-08-28T05:38:10.516Z,3.50
2018-08-28T05:40:40.583Z,3.58
2018-08-28T05:43:15.809Z,3.10
2018-08-28T05:45:44.481Z,2.85
2018-08-28T05:48:15.740Z,3.22
2018-08-28T05:50:44.297Z,3.33
2018-08-28T05:53:14.103Z,3.90
2018-08-28T05:55:42.803Z,3.15
2018-08-28T05:58:12.177Z,3.40
2018-08-28T06:00:41.718Z,3.10
2018-08-28T06:03:11.019Z,2.92
2018-08-28T06:05:39.734Z,3.30
2018-08-28T06:08:08.516Z,3.50
2018-08-28T06:10:37.088Z,5.92
2018-08-28T06:13:05.947Z,3.98
2018-08-28T06:15:34.626Z,5.35
2018-08-28T06:18:03.701Z,3.87
2018-08-28T06:20:32.797Z,3.10
2018-08-28T06:23:02.022Z,3.37
2018-08-28T06:25:30.950Z,4.00
2018-08-28T06:28:00.051Z,3.83
2018-08-28T06:30:29.159Z,3.50
2018-08-28T06:32:58.496Z,3.37
2018-08-28T06:35:27.797Z,3.33
2018-08-28T06:37:56.529Z,3.58
2018-08-28T06:40:25.264Z,3.70
2018-08-28T06:42:53.907Z,3.52
2018-08-28T06:45:22.804Z,3.93
2018-08-28T06:47:51.809Z,3.20
2018-08-28T06:50:22.375Z,3.77
2018-08-28T06:52:51.425Z,3.65
2018-08-28T06:55:20.501Z,4.10
2018-08-28T06:57:54.176Z,4.42
2018-08-28T07:00:23.739Z,3.93
2018-08-28T07:02:52.963Z,3.77
2018-08-28T07:05:22.383Z,3.70
2018-08-28T07:07:51.070Z,3.55
2018-08-28T07:10:19.634Z,3.52
2018-08-28T07:12:48.882Z,3.08
2018-08-28T07:15:17.528Z,3.45
2018-08-28T07:17:46.866Z,3.00
2018-08-28T07:20:15.638Z,3.52
2018-08-28T07:22:44.990Z,3.37
2018-08-28T07:25:13.550Z,3.08
2018-08-28T07:27:42.220Z,3.62
2018-08-28T07:30:10.724Z,2.98
2018-08-28T07:32:39.701Z,2.95
2018-08-28T07:35:08.437Z,3.52
2018-08-28T07:37:37.989Z,3.02
2018-08-28T07:40:08.533Z,3.00
2018-08-28T07:42:37.140Z,2.90
2018-08-28T07:45:06.628Z,3.33
2018-08-28T07:47:36.415Z,3.00
2018-08-28T07:50:06.016Z,2.85
2018-08-28T07:52:34.562Z,3.60
2018-08-28T07:55:04.817Z,3.37
2018-08-28T07:57:33.482Z,3.20
2018-08-28T08:00:02.885Z,3.58
2018-08-28T08:02:31.573Z,3.00
2018-08-28T08:05:00.687Z,2.70
2018-08-28T08:07:29.387Z,3.00
2018-08-28T08:09:57.969Z,3.20
2018-08-28T08:12:27.414Z,2.83
2018-08-28T08:14:56.736Z,3.00
2018-08-28T08:17:25.428Z,2.92
2018-08-28T08:19:54.143Z,3.42
2018-08-28T08:22:23.476Z,2.75
2018-08-28T08:24:52.442Z,2.77
2018-08-28T08:27:23.418Z,2.67
2018-08-28T08:29:51.884Z,2.85
2018-08-28T08:32:21.471Z,2.70
2018-08-28T08:34:50.259Z,2.67
2018-08-28T08:37:20.277Z,2.77
2018-08-28T08:39:51.286Z,3.05
2018-08-28T08:42:21.004Z,3.08
2018-08-28T08:44:49.524Z,2.77
2018-08-28T08:47:18.825Z,2.80
2018-08-28T08:49:48.140Z,2.40
2018-08-28T08:52:18.313Z,2.83
2018-08-28T08:54:48.031Z,2.83
2018-08-28T08:57:17.480Z,2.87
2018-08-28T08:59:49.299Z,2.35
2018-08-28T09:02:19.733Z,2.87
2018-08-28T09:04:50.158Z,2.90
2018-08-28T09:07:18.615Z,2.55
2018-08-28T09:09:47.103Z,2.60
2018-08-28T09:12:17.020Z,2.90
2018-08-28T09:14:45.530Z,3.02
2018-08-28T09:17:14.978Z,3.60
2018-08-28T09:19:43.491Z,3.15
2018-08-28T09:22:12.380Z,2.70
2018-08-28T09:24:41.748Z,3.17
2018-08-28T09:27:10.339Z,2.75
2018-08-28T09:29:39.777Z,2.98
2018-08-28T09:32:09.356Z,3.02
2018-08-28T09:34:37.988Z,3.25
2018-08-28T09:37:07.288Z,3.10
2018-08-28T09:39:36.048Z,3.35
2018-08-28T09:42:05.420Z,3.20
2018-08-28T09:44:33.970Z,2.70
2018-08-28T09:47:05.257Z,3.05
2018-08-28T09:49:34.333Z,2.85
2018-08-28T09:52:04.929Z,3.02
2018-08-28T09:54:35.533Z,2.87
2018-08-28T09:57:05.722Z,3.05
2018-08-28T09:59:36.071Z,2.98
2018-08-28T10:02:05.926Z,2.90
2018-08-28T10:04:34.486Z,2.67
2018-08-28T10:07:04.914Z,2.90
2018-08-28T10:09:35.421Z,3.00
2018-08-28T10:12:04.770Z,3.25
2018-08-28T10:14:33.531Z,3.00
2018-08-28T10:17:03.480Z,3.50
2018-08-28T10:19:32.277Z,3.02
2018-08-28T10:22:02.266Z,3.45
2018-08-28T10:24:31.744Z,2.83
2018-08-28T10:27:00.426Z,2.95
2018-08-28T10:29:29.040Z,2.83
2018-08-28T10:31:58.607Z,2.83
2018-08-28T10:34:28.450Z,2.60
2018-08-28T10:36:58.609Z,2.92
2018-08-28T10:39:27.551Z,3.00
2018-08-28T10:41:57.051Z,2.55
2018-08-28T10:44:28.121Z,2.83
2018-08-28T10:46:56.723Z,3.02
2018-08-28T10:49:27.037Z,3.00
2018-08-28T10:51:55.924Z,2.70
2018-08-28T10:54:26.146Z,2.98
2018-08-28T10:56:56.678Z,2.90
2018-08-28T10:59:28.448Z,2.92
2018-08-28T11:01:57.021Z,2.58
2018-08-28T11:04:26.141Z,2.70
2018-08-28T11:06:55.435Z,3.30
2018-08-28T11:09:25.228Z,3.13
2018-08-28T11:11:57.627Z,2.80
2018-08-28T11:14:29.022Z,2.83
2018-08-28T11:17:01.173Z,2.85
2018-08-28T11:19:31.463Z,2.87
2018-08-28T11:22:00.950Z,3.10
2018-08-28T11:24:29.760Z,3.27
2018-08-28T11:26:58.409Z,2.77
2018-08-28T11:29:27.105Z,3.10
2018-08-28T11:31:56.661Z,3.37
2018-08-28T11:34:26.485Z,3.40
2018-08-28T11:36:56.656Z,3.40
2018-08-28T11:39:25.313Z,3.63
2018-08-28T11:41:54.855Z,3.80
2018-08-28T11:44:25.342Z,3.20
2018-08-28T11:46:54.634Z,3.47
2018-08-28T11:49:23.210Z,3.60
2018-08-28T11:51:52.047Z,3.07
2018-08-28T11:54:20.828Z,3.05
2018-08-28T11:56:49.994Z,3.67
2018-08-28T11:59:19.348Z,3.33
2018-08-28T12:01:49.198Z,3.60
2018-08-28T12:04:19.226Z,3.55
2018-08-28T12:06:49.306Z,3.30
2018-08-28T12:09:17.917Z,3.60
2018-08-28T12:11:46.946Z,3.75
2018-08-28T12:14:16.353Z,3.70
2018-08-28T12:16:45.174Z,3.35
2018-08-28T12:19:13.718Z,3.35
2018-08-28T12:21:45.333Z,3.60
2018-08-28T12:24:17.668Z,3.83
2018-08-28T12:26:52.034Z,3.60
2018-08-28T12:29:20.638Z,3.70
2018-08-28T12:31:50.456Z,3.12
2018-08-28T12:34:19.047Z,3.50
2018-08-28T12:36:48.495Z,3.20
2018-08-28T12:39:17.879Z,3.67
2018-08-28T12:41:47.556Z,3.52
2018-08-28T12:44:16.267Z,3.37
2018-08-28T12:46:44.828Z,3.45
2018-08-28T12:49:13.524Z,3.72
2018-08-28T12:51:42.152Z,3.30
2018-08-28T12:54:11.106Z,3.50
2018-08-28T12:56:40.320Z,3.55
2018-08-28T12:59:09.952Z,3.70
2018-08-28T13:01:39.591Z,3.55
2018-08-28T13:04:08.373Z,3.60
2018-08-28T13:06:39.320Z,3.75
2018-08-28T13:09:09.029Z,3.50
2018-08-28T13:11:38.225Z,3.55
2018-08-28T13:14:07.987Z,3.65
2018-08-28T13:16:37.669Z,3.37
2018-08-28T13:19:07.865Z,3.55
2018-08-28T13:21:36.729Z,3.58
2018-08-28T13:24:05.660Z,4.00
2018-08-28T13:26:35.312Z,3.47
2018-08-28T13:29:05.403Z,3.85
2018-08-28T13:31:34.356Z,3.72
2018-08-28T13:34:03.581Z,3.90
2018-08-28T13:36:33.038Z,3.40
2018-08-28T13:39:02.906Z,3.80
2018-08-28T13:41:32.535Z,3.85
2018-08-28T13:44:01.946Z,3.90
2018-08-28T13:46:31.759Z,3.50
2018-08-28T13:49:01.973Z,3.60
2018-08-28T13:51:32.173Z,3.50
2018-08-28T13:54:02.687Z,3.62
2018-08-28T13:56:33.276Z,3.47
2018-08-28T13:59:04.173Z,3.37
2018-08-28T14:01:34.327Z,3.65
2018-08-28T14:04:04.190Z,3.50
2018-08-28T14:06:33.708Z,3.90
2018-08-28T14:09:02.949Z,4.10
2018-08-28T14:11:31.705Z,3.90
2018-08-28T14:14:01.017Z,3.50
2018-08-28T14:16:30.541Z,3.92
2018-08-28T14:19:00.033Z,3.57
2018-08-28T14:21:29.663Z,3.83
2018-08-28T14:23:59.777Z,3.90
2018-08-28T14:26:28.607Z,4.00
2018-08-28T14:28:57.251Z,4.00
2018-08-28T14:31:26.459Z,4.37
2018-08-28T14:33:55.695Z,4.55
2018-08-28T14:36:26.315Z,4.40
2018-08-28T14:38:56.588Z,4.30
2018-08-28T14:41:27.440Z,4.65
2018-08-28T14:43:56.413Z,4.30
2018-08-28T14:46:28.297Z,4.80
2018-08-28T14:48:57.765Z,4.22
2018-08-28T14:51:27.243Z,5.00
2018-08-28T14:53:55.869Z,5.40
2018-08-28T14:56:26.340Z,5.15
2018-08-28T14:58:55.036Z,4.08
2018-08-28T15:01:25.914Z,4.22
2018-08-28T15:03:55.780Z,4.00
2018-08-28T15:06:25.522Z,4.10
2018-08-28T15:08:55.212Z,4.20
2018-08-28T15:11:24.109Z,4.25
2018-08-28T15:13:52.978Z,4.40
2018-08-28T15:16:24.614Z,4.42
2018-08-28T15:18:54.456Z,4.75
2018-08-28T15:21:25.516Z,4.60
2018-08-28T15:23:55.062Z,4.53
2018-08-28T15:26:24.153Z,4.22
2018-08-28T15:28:54.525Z,4.20
2018-08-28T15:31:24.974Z,4.20
2018-08-28T15:33:55.564Z,4.60
2018-08-28T15:36:25.904Z,4.45
2018-08-28T15:38:55.939Z,3.90
2018-08-28T15:41:24.615Z,4.87
2018-08-28T15:43:54.993Z,4.50
2018-08-28T15:46:26.267Z,4.60
2018-08-28T15:48:55.269Z,3.90
2018-08-28T15:51:24.274Z,3.90
2018-08-28T15:53:55.530Z,3.98
2018-08-28T15:56:26.952Z,4.10
2018-08-28T15:58:59.357Z,4.20
2018-08-28T16:01:29.770Z,4.90
2018-08-28T16:03:59.694Z,5.05
2018-08-28T16:06:29.321Z,4.87
2018-08-28T16:08:58.559Z,5.25
2018-08-28T16:11:28.889Z,4.53
2018-08-28T16:14:00.115Z,4.95
2018-08-28T16:16:32.658Z,4.95
2018-08-28T16:19:02.716Z,5.00
2018-08-28T16:21:40.078Z,4.83
2018-08-28T16:24:09.160Z,4.78
2018-08-28T16:26:38.795Z,4.70
2018-08-28T16:29:07.925Z,5.30
2018-08-28T16:31:37.065Z,4.92
2018-08-28T16:34:09.070Z,4.92
2018-08-28T16:36:37.766Z,4.53
2018-08-28T16:39:09.317Z,5.30
2018-08-28T16:41:38.388Z,5.17
2018-08-28T16:44:08.023Z,4.83
2018-08-28T16:46:38.243Z,5.12
2018-08-28T16:49:08.706Z,5.40
2018-08-28T16:51:38.772Z,5.42
2018-08-28T16:54:09.885Z,5.70
2018-08-28T16:56:38.462Z,5.22
2018-08-28T16:59:08.174Z,5.00
2018-08-28T17:01:37.109Z,15.75
2018-08-28T17:04:09.024Z,10.50
2018-08-28T17:06:39.961Z,7.87
2018-08-28T17:09:10.768Z,6.75
2018-08-28T17:11:41.386Z,4.90
2018-08-28T17:14:10.456Z,5.40
2018-08-28T17:16:40.981Z,5.53
2018-08-28T17:19:09.711Z,4.90
2018-08-28T17:21:39.980Z,5.53
2018-08-28T17:24:11.651Z,4.85
2018-08-28T17:26:42.476Z,5.25
2018-08-28T17:29:42.434Z,4.85
2018-08-28T17:32:13.329Z,4.47
2018-08-28T17:34:42.159Z,4.70
2018-08-28T17:37:13.327Z,4.60
2018-08-28T17:39:41.960Z,4.90
2018-08-28T17:42:09.509Z,4.75
2018-08-28T17:44:38.741Z,4.80
2018-08-28T17:47:07.438Z,4.58
2018-08-28T17:49:36.043Z,4.37
2018-08-28T17:52:05.078Z,4.40
2018-08-28T17:54:35.421Z,4.83
2018-08-28T17:57:04.109Z,4.67
2018-08-28T17:59:32.721Z,4.50
2018-08-28T18:02:02.457Z,4.53
2018-08-28T18:04:31.871Z,4.53
2018-08-28T18:07:00.966Z,4.33
2018-08-28T18:09:29.641Z,4.53
2018-08-28T18:11:58.405Z,4.42
2018-08-28T18:14:27.426Z,4.65
2018-08-28T18:16:56.714Z,4.20
2018-08-28T18:19:26.001Z,4.05
2018-08-28T18:21:54.812Z,4.30
2018-08-28T18:24:24.318Z,4.20
2018-08-28T18:26:52.994Z,4.40
2018-08-28T18:29:22.588Z,4.10
2018-08-28T18:31:55.267Z,4.67
2018-08-28T18:34:24.230Z,4.50
2018-08-28T18:36:53.002Z,4.12
2018-08-28T18:39:23.329Z,4.37
2018-08-28T18:41:52.639Z,4.17
2018-08-28T18:44:21.409Z,4.40
2018-08-28T18:47:03.045Z,4.50
2018-08-28T18:49:32.938Z,4.10
2018-08-28T18:52:02.077Z,4.33
2018-08-28T18:54:35.782Z,4.53
2018-08-28T18:57:04.352Z,4.87
2018-08-28T18:59:33.080Z,4.70
2018-08-28T19:04:10.999Z,4.10
2018-08-28T19:06:42.616Z,4.58
2018-08-28T19:09:11.472Z,4.60
2018-08-28T19:11:42.654Z,4.40
2018-08-28T19:14:12.243Z,4.70
2018-08-28T19:16:42.400Z,4.15
2018-08-28T19:19:12.468Z,4.67
2018-08-28T19:24:25.758Z,4.80
2018-08-28T19:26:54.442Z,4.83
2018-08-28T19:29:23.088Z,4.92
2018-08-28T19:31:52.780Z,4.97
2018-08-28T19:34:21.406Z,5.12
2018-08-28T19:36:51.516Z,4.80
2018-08-28T19:39:22.555Z,4.85
2018-08-28T19:41:51.380Z,4.60
2018-08-28T19:44:20.325Z,4.87
2018-08-28T19:46:49.059Z,4.60
2018-08-28T19:49:18.423Z,4.15
2018-08-28T19:51:48.138Z,4.45
2018-08-28T19:54:17.611Z,4.83
2018-08-28T19:56:46.781Z,5.12
2018-08-28T19:59:15.485Z,4.30
2018-08-28T20:01:44.320Z,4.35
2018-08-28T20:04:13.053Z,4.55
2018-08-28T20:06:41.555Z,4.60
2018-08-28T20:09:11.236Z,4.45
2018-08-28T20:11:41.958Z,4.62
2018-08-28T20:14:10.554Z,5.80
2018-08-28T20:16:39.251Z,4.87
2018-08-28T20:19:08.447Z,4.95
2018-08-28T20:21:37.175Z,4.97
2018-08-28T20:24:06.740Z,5.08
2018-08-28T20:26:39.413Z,4.47
2018-08-28T20:29:08.312Z,4.80
2018-08-28T20:31:37.459Z,4.20
2018-08-28T20:34:07.299Z,4.40
2018-08-28T20:36:36.821Z,4.60
2018-08-28T20:39:06.386Z,4.67
2018-08-28T20:41:35.534Z,4.78
2018-08-28T20:44:05.148Z,4.40
2018-08-28T20:46:33.801Z,4.90
2018-08-28T20:49:04.837Z,4.65
2018-08-28T20:51:34.159Z,4.87
2018-08-28T20:54:04.062Z,4.47
2018-08-28T20:56:38.637Z,4.78
2018-08-28T20:59:08.269Z,4.60
2018-08-28T21:01:37.692Z,4.28
2018-08-28T21:04:16.764Z,4.80
2018-08-28T21:06:45.398Z,4.67
2018-08-28T21:09:14.435Z,4.42
2018-08-28T21:11:44.167Z,4.30
2018-08-28T21:14:13.268Z,4.50
2018-08-28T21:16:42.834Z,4.58
2018-08-28T21:22:49.253Z,4.67
2018-08-28T21:25:18.734Z,4.85
2018-08-28T21:27:48.656Z,5.30
2018-08-28T21:30:17.414Z,4.65
2018-08-28T21:32:47.598Z,5.30
2018-08-28T21:35:16.286Z,4.62
2018-08-28T21:37:45.503Z,5.12
2018-08-28T21:40:14.727Z,4.55
2018-08-28T21:42:43.470Z,4.97
2018-08-28T21:45:12.509Z,4.03
2018-08-28T21:47:41.891Z,4.65
2018-08-28T21:50:10.603Z,4.40
2018-08-28T21:52:42.360Z,4.53
2018-08-28T21:55:12.506Z,4.55
2018-08-28T21:57:41.069Z,4.70
2018-08-28T22:00:10.071Z,4.40
2018-08-28T22:02:38.924Z,4.67
2018-08-28T22:05:08.483Z,4.78
2018-08-28T22:07:41.017Z,4.60
2018-08-28T22:10:10.109Z,4.50
2018-08-28T22:12:38.899Z,5.00
2018-08-28T22:15:14.343Z,4.80
2018-08-28T22:17:43.871Z,5.20
2018-08-28T22:20:12.485Z,4.67
2018-08-28T22:22:42.253Z,4.73
2018-08-28T22:25:10.904Z,4.90
2018-08-28T22:27:40.117Z,4.97
2018-08-28T22:30:09.949Z,5.42
2018-08-28T22:32:39.188Z,5.42
2018-08-28T22:35:08.130Z,4.80
2018-08-28T22:40:56.193Z,5.23
2018-08-28T22:43:25.166Z,5.33
2018-08-28T22:45:53.763Z,4.87
2018-08-28T22:48:23.204Z,5.87
2018-08-28T22:50:51.862Z,5.43
2018-08-28T22:53:20.464Z,4.78
2018-08-28T22:55:50.101Z,5.15
2018-08-28T22:58:18.655Z,5.33
2018-08-28T23:00:48.520Z,5.10
2018-08-28T23:03:17.432Z,5.15
2018-08-28T23:05:47.093Z,5.70
2018-08-28T23:08:15.792Z,4.83
2018-08-28T23:10:44.511Z,5.10
2018-08-28T23:13:13.216Z,5.17
2018-08-28T23:15:41.913Z,5.30
2018-08-28T23:18:11.449Z,5.60
2018-08-28T23:20:40.267Z,4.80
2018-08-28T23:23:10.316Z,4.83
2018-08-28T23:25:39.856Z,5.50
2018-08-28T23:28:09.737Z,5.03
2018-08-28T23:30:39.072Z,5.37
2018-08-28T23:33:08.559Z,5.17
2018-08-28T23:35:37.103Z,5.33
2018-08-28T23:38:06.232Z,4.80
2018-08-28T23:40:34.775Z,5.03
2018-08-28T23:43:03.513Z,5.27
2018-08-28T23:45:32.149Z,4.67
2018-08-28T23:48:02.149Z,5.30
2018-08-28T23:50:30.876Z,4.90
2018-08-28T23:52:59.440Z,5.23
2018-08-28T23:55:28.606Z,4.60
2018-08-28T23:57:57.348Z,5.00
